Time;durP1;ratioP1;P1;durP2;ratioP2;P2;SDS_P1;SDS_P2;PMS_P1;PMS_P2;Temp;Humidity;BMP_temperature;BMP_pressure;BME280_temperature;BME280_humidity;BME280_pressure;Samples;Min_cycle;Max_cycle;Signal;HPM_P1;HPM_P2
2022/05/22 00:01:41;;;;;;;18.98;7.38;;;;;;;22.63;58.99;98589.06;5014737;28;20628;-49
2022/05/22 00:04:11;;;;;;;12.05;6.93;;;;;;;22.62;59.54;98588.28;5032498;28;20032;-50
2022/05/22 00:06:38;;;;;;;9.93;6.20;;;;;;;22.59;59.58;98569.31;5032474;28;20093;-49
2022/05/22 00:09:04;;;;;;;13.70;6.45;;;;;;;22.57;59.76;98563.44;5032411;28;20055;-47
2022/05/22 00:11:30;;;;;;;15.13;7.20;;;;;;;22.59;59.57;98561.28;5032294;28;20026;-49
2022/05/22 00:13:56;;;;;;;18.50;7.07;;;;;;;22.66;59.50;98561.78;5014316;28;20032;-47
2022/05/22 00:16:36;;;;;;;9.23;6.22;;;;;;;22.66;59.33;98559.09;5031549;28;20025;-48
2022/05/22 00:19:17;;;;;;;17.52;6.97;;;;;;;22.67;59.64;98556.13;5032290;28;20112;-47
2022/05/22 00:21:44;;;;;;;7.25;6.18;;;;;;;22.54;59.69;98559.47;5032170;28;20395;-47
2022/05/22 00:24:12;;;;;;;16.60;6.50;;;;;;;22.42;59.96;98559.84;5014424;28;20645;-48
2022/05/22 00:26:39;;;;;;;12.88;5.93;;;;;;;22.52;59.96;98558.97;5032129;28;20017;-48
2022/05/22 00:29:06;;;;;;;14.88;7.22;;;;;;;22.46;60.08;98554.72;5014299;28;20052;-48
2022/05/22 00:31:32;;;;;;;11.82;6.82;;;;;;;22.43;59.74;98549.94;5032047;28;20024;-48
2022/05/22 00:33:58;;;;;;;13.25;6.63;;;;;;;22.50;60.08;98551.22;5014210;28;20515;-48
2022/05/22 00:36:24;;;;;;;13.65;7.28;;;;;;;22.56;60.06;98545.78;5014232;28;20499;-48
2022/05/22 00:38:50;;;;;;;12.77;7.00;;;;;;;22.65;59.62;98546.78;5031969;28;20106;-47
2022/05/22 00:41:16;;;;;;;8.20;6.45;;;;;;;22.83;59.58;98543.38;5031919;28;20017;-47
2022/05/22 00:43:48;;;;;;;13.23;6.70;;;;;;;22.84;58.92;98536.97;5014095;28;20025;-48
2022/05/22 00:46:16;;;;;;;15.65;6.90;;;;;;;22.77;59.15;98536.50;5031745;28;20028;-48
2022/05/22 00:48:47;;;;;;;18.83;7.00;;;;;;;22.61;59.18;98537.72;5031840;28;20029;-48
2022/05/22 00:51:19;;;;;;;14.05;6.60;;;;;;;22.38;60.17;98534.75;5031764;28;20029;-50
2022/05/22 00:53:53;;;;;;;9.65;6.05;;;;;;;22.36;60.57;98528.88;5031689;28;20026;-49
2022/05/22 00:56:23;;;;;;;13.20;6.43;;;;;;;22.47;59.99;98525.00;5031843;28;20018;-50
2022/05/22 00:58:52;;;;;;;15.00;6.88;;;;;;;22.60;60.03;98522.78;5014023;28;20088;-49
2022/05/22 01:01:18;;;;;;;15.13;6.88;;;;;;;22.59;59.58;98523.84;5031673;28;20026;-50
2022/05/22 01:03:45;;;;;;;19.33;7.22;;;;;;;22.36;60.01;98530.75;5013951;28;20041;-50
2022/05/22 01:06:20;;;;;;;10.85;6.57;;;;;;;22.16;60.21;98532.50;5013816;28;20026;-49
2022/05/22 01:08:47;;;;;;;11.05;7.45;;;;;;;22.04;60.95;98521.38;5031751;28;20034;-49
2022/05/22 01:11:21;;;;;;;12.05;6.93;;;;;;;21.96;61.40;98527.31;5013859;28;20021;-49
2022/05/22 01:13:53;;;;;;;16.52;6.97;;;;;;;22.07;61.11;98518.94;5031553;28;20025;-49
2022/05/22 01:16:19;;;;;;;15.18;6.35;;;;;;;22.18;60.68;98521.53;5013860;28;20045;-50
2022/05/22 01:18:49;;;;;;;12.50;6.88;;;;;;;22.29;60.86;98523.84;5031433;28;20049;-49
2022/05/22 01:21:20;;;;;;;12.32;7.22;;;;;;;22.37;60.19;98525.13;5031782;28;20022;-49
2022/05/22 01:23:46;;;;;;;13.35;7.45;;;;;;;22.29;59.80;98529.19;4997438;28;20148;-49
2022/05/22 01:26:12;;;;;;;10.98;6.95;;;;;;;22.10;60.13;98530.94;5032414;28;20017;-50
2022/05/22 01:28:38;;;;;;;16.98;8.05;;;;;;;21.90;61.39;98531.91;5035426;28;20479;-50
2022/05/22 01:31:05;;;;;;;15.95;7.35;;;;;;;21.90;61.06;98523.88;5017680;28;20024;-49
2022/05/22 01:33:34;;;;;;;25.30;8.50;;;;;;;21.80;61.26;98530.09;5035302;28;20061;-49
2022/05/22 01:36:01;;;;;;;21.13;7.50;;;;;;;21.62;61.55;98523.53;5035314;28;20079;-49
2022/05/22 01:38:27;;;;;;;13.27;7.50;;;;;;;21.42;62.20;98526.28;5035287;28;20064;-50
2022/05/22 01:40:53;;;;;;;14.88;7.40;;;;;;;21.21;62.94;98514.88;5017377;28;20045;-49
2022/05/22 01:43:19;;;;;;;15.10;7.18;;;;;;;21.18;63.58;98521.59;5017309;28;20399;-49
2022/05/22 01:45:45;;;;;;;13.52;7.53;;;;;;;21.21;63.45;98517.56;5035100;28;20029;-49
2022/05/22 01:48:11;;;;;;;9.80;7.78;;;;;;;21.18;63.66;98520.78;5035018;28;20163;-49
2022/05/22 01:50:38;;;;;;;11.10;7.72;;;;;;;21.12;64.05;98522.69;5034994;28;20490;-49
2022/05/22 01:53:05;;;;;;;18.30;8.00;;;;;;;21.14;63.75;98523.19;5034889;28;20072;-49
2022/05/22 01:55:31;;;;;;;14.80;8.00;;;;;;;21.13;63.73;98525.06;5034932;28;20508;-50
2022/05/22 01:57:57;;;;;;;23.17;8.55;;;;;;;21.04;63.71;98532.03;5034862;28;20147;-49
2022/05/22 02:00:25;;;;;;;12.43;7.47;;;;;;;20.99;63.78;98533.91;5034799;28;20104;-49
2022/05/22 02:02:56;;;;;;;11.48;7.18;;;;;;;21.02;63.87;98530.72;5034824;28;20021;-49
2022/05/22 02:05:22;;;;;;;8.00;7.20;;;;;;;21.04;63.59;98529.38;5034699;28;20029;-48
2022/05/22 02:10:34;;;;;;;11.03;6.50;;;;;;;20.98;63.86;98524.34;5034988;28;20094;-49
2022/05/22 02:13:00;;;;;;;9.57;6.60;;;;;;;20.90;64.37;98521.16;5034561;28;20018;-49
2022/05/22 02:15:27;;;;;;;14.23;7.10;;;;;;;20.83;64.67;98523.31;5016779;28;20026;-49
2022/05/22 02:17:54;;;;;;;12.52;7.68;;;;;;;20.81;64.81;98514.78;5013221;28;20125;-49
2022/05/22 02:20:20;;;;;;;16.92;7.93;;;;;;;20.73;65.38;98508.13;5013373;28;20460;-50
2022/05/22 02:22:49;;;;;;;13.27;7.57;;;;;;;20.68;65.72;98513.47;5014696;28;20515;-48
2022/05/22 02:25:19;;;;;;;17.77;7.55;;;;;;;20.76;65.60;98506.78;5013282;28;20026;-49
2022/05/22 02:27:45;;;;;;;13.57;8.38;;;;;;;20.88;64.97;98501.94;5014654;28;20071;-49
2022/05/22 02:30:14;;;;;;;15.82;8.05;;;;;;;20.98;64.91;98497.66;5014478;28;20517;-49
2022/05/22 02:32:40;;;;;;;15.05;7.13;;;;;;;21.17;64.01;98498.66;5013108;28;20030;-50
2022/05/22 02:35:09;;;;;;;13.38;8.20;;;;;;;21.28;63.53;98494.03;5014352;28;20025;-49
2022/05/22 02:37:50;;;;;;;15.00;8.35;;;;;;;21.29;63.12;98491.13;5013477;28;20029;-48
2022/05/22 02:40:18;;;;;;;14.68;7.53;;;;;;;21.15;63.31;98487.44;5014311;28;20020;-48
2022/05/22 02:42:46;;;;;;;14.23;7.57;;;;;;;21.01;63.63;98486.44;5014330;28;20403;-48
2022/05/22 02:45:15;;;;;;;19.20;7.55;;;;;;;21.00;63.92;98490.19;5014218;28;20135;-49
2022/05/22 02:47:41;;;;;;;14.52;7.18;;;;;;;21.14;63.37;98483.97;5012866;28;20562;-49
2022/05/22 02:50:08;;;;;;;13.32;7.18;;;;;;;21.14;63.19;98477.84;5014157;28;20057;-49
2022/05/22 02:52:34;;;;;;;16.77;7.45;;;;;;;21.08;63.30;98485.06;5012760;28;20030;-49
2022/05/22 02:55:00;;;;;;;12.55;6.65;;;;;;;20.92;63.24;98481.66;5012650;28;20041;-49
2022/05/22 02:57:26;;;;;;;11.15;7.88;;;;;;;20.70;64.11;98487.34;5013941;28;20033;-49
2022/05/22 02:59:54;;;;;;;13.60;7.60;;;;;;;20.65;64.53;98486.56;5014006;28;20410;-48
2022/05/22 03:02:21;;;;;;;10.90;7.70;;;;;;;20.71;64.54;98478.28;5012726;28;20030;-49
2022/05/22 03:04:50;;;;;;;20.55;8.30;;;;;;;20.74;64.37;98464.41;5012526;28;20034;-48
2022/05/22 03:07:18;;;;;;;11.32;7.15;;;;;;;20.81;64.33;98464.13;5013811;28;20022;-49
2022/05/22 03:09:46;;;;;;;10.65;6.85;;;;;;;20.95;64.01;98459.78;5013799;28;20018;-49
2022/05/22 03:12:16;;;;;;;14.48;7.75;;;;;;;21.10;63.59;98458.91;5012404;28;20065;-49
2022/05/22 03:14:47;;;;;;;10.55;7.03;;;;;;;21.15;63.05;98463.44;5013652;28;20022;-49
2022/05/22 03:17:13;;;;;;;20.23;8.82;;;;;;;21.01;63.08;98460.56;5018382;28;20037;-49
2022/05/22 03:19:39;;;;;;;17.85;7.65;;;;;;;20.91;63.37;98458.72;5033606;28;20087;-50
2022/05/22 03:22:07;;;;;;;15.20;7.75;;;;;;;20.84;63.79;98458.22;5033326;28;20053;-49
2022/05/22 03:24:33;;;;;;;12.85;7.65;;;;;;;20.88;63.88;98459.25;5015480;28;20108;-49
2022/05/22 03:27:04;;;;;;;17.08;8.00;;;;;;;20.91;63.73;98461.41;5033195;28;20030;-49
2022/05/22 03:29:31;;;;;;;15.90;8.65;;;;;;;20.82;63.74;98462.22;5033199;28;20029;-49
2022/05/22 03:31:57;;;;;;;15.63;10.07;;;;;;;20.55;64.23;98466.03;5033114;28;20461;-49
2022/05/22 03:34:23;;;;;;;20.55;8.35;;;;;;;20.39;64.91;98470.59;5032944;28;20108;-48
2022/05/22 03:36:50;;;;;;;17.35;8.93;;;;;;;20.40;64.86;98474.84;5033044;28;20028;-49
2022/05/22 03:39:16;;;;;;;19.65;8.80;;;;;;;20.48;64.97;98469.00;5032969;28;20025;-49
2022/05/22 03:41:42;;;;;;;15.65;8.85;;;;;;;20.63;64.63;98468.16;5032915;28;20038;-49
2022/05/22 03:44:08;;;;;;;18.45;8.52;;;;;;;20.72;64.40;98466.53;5032887;28;20022;-49
2022/05/22 03:46:34;;;;;;;13.43;8.38;;;;;;;20.64;64.24;98468.97;5015084;28;20473;-49
2022/05/22 03:49:00;;;;;;;16.15;9.65;;;;;;;20.40;64.91;98463.38;5014801;28;20025;-50
2022/05/22 03:51:26;;;;;;;15.07;7.85;;;;;;;20.18;65.51;98467.16;5014997;28;20036;-48
2022/05/22 03:53:53;;;;;;;16.92;8.50;;;;;;;20.10;66.08;98462.38;5032647;28;20100;-49
2022/05/22 03:56:19;;;;;;;22.63;10.00;;;;;;;20.06;66.39;98459.47;5014849;28;20026;-49
2022/05/22 03:58:46;;;;;;;15.13;9.07;;;;;;;20.07;66.61;98455.72;5032624;28;20048;-49
2022/05/22 04:01:12;;;;;;;18.75;9.50;;;;;;;20.05;66.68;98454.41;5032639;28;20028;-49
2022/05/22 04:03:39;;;;;;;14.55;9.73;;;;;;;20.07;66.78;98454.91;5032522;28;20529;-49
2022/05/22 04:06:07;;;;;;;13.32;8.15;;;;;;;20.14;66.47;98456.25;5032471;28;20068;-49
2022/05/22 04:08:33;;;;;;;18.15;9.13;;;;;;;20.18;66.16;98451.16;5032501;28;20025;-50
2022/05/22 04:11:10;;;;;;;22.23;9.88;;;;;;;20.35;66.24;98443.69;5032433;28;20074;-50
2022/05/22 04:13:36;;;;;;;10.50;6.85;;;;;;;20.67;65.11;98441.75;5032370;28;20032;-49
2022/05/22 04:16:02;;;;;;;13.63;7.43;;;;;;;20.74;64.39;98448.41;5032354;28;20022;-49
2022/05/22 04:18:28;;;;;;;12.63;7.45;;;;;;;20.78;63.85;98442.50;5014346;28;20045;-50
2022/05/22 04:20:54;;;;;;;10.90;7.30;;;;;;;20.70;64.02;98438.53;5032262;28;20022;-49
2022/05/22 04:26:05;;;;;;;12.20;7.43;;;;;;;20.64;64.31;98428.97;5032218;28;20107;-49
2022/05/22 04:28:32;;;;;;;13.32;7.03;;;;;;;20.76;63.98;98437.44;5032120;28;20040;-49
2022/05/22 04:30:58;;;;;;;21.90;7.90;;;;;;;20.85;63.77;98443.03;5014301;28;20022;-48
2022/05/22 04:33:26;;;;;;;19.40;7.82;;;;;;;20.88;63.48;98437.13;5032008;28;20018;-49
2022/05/22 04:35:53;;;;;;;21.20;9.10;;;;;;;20.98;63.21;98437.09;5032058;28;20062;-49
2022/05/22 04:38:19;;;;;;;15.30;7.82;;;;;;;21.00;63.07;98442.94;5031991;28;20032;-50
2022/05/22 04:40:58;;;;;;;15.90;7.93;;;;;;;20.82;63.24;98447.03;5014364;28;20100;-49
2022/05/22 04:43:25;;;;;;;15.05;8.30;;;;;;;20.58;63.92;98438.03;5031974;28;20083;-49
2022/05/22 04:45:51;;;;;;;18.45;8.25;;;;;;;20.39;64.73;98441.28;5031889;28;20021;-48
2022/05/22 04:48:19;;;;;;;23.92;9.35;;;;;;;20.43;64.88;98439.66;5031865;28;20502;-49
2022/05/22 04:50:49;;;;;;;19.70;8.60;;;;;;;20.64;64.66;98442.28;5031885;28;20021;-49
2022/05/22 04:53:17;;;;;;;13.75;7.25;;;;;;;20.94;63.60;98444.03;5031792;28;20033;-50
2022/05/22 04:55:43;;;;;;;14.52;7.85;;;;;;;20.92;63.04;98443.50;5031753;28;20013;-49
2022/05/22 04:58:09;;;;;;;13.07;8.15;;;;;;;20.99;62.94;98445.88;5014309;28;20433;-49
2022/05/22 05:00:36;;;;;;;16.23;7.10;;;;;;;21.07;62.62;98445.34;5032733;28;20014;-49
2022/05/22 05:03:02;;;;;;;9.90;7.38;;;;;;;21.10;62.23;98452.78;5038264;28;20037;-49
2022/05/22 05:05:28;;;;;;;13.95;8.02;;;;;;;21.11;62.16;98452.50;5038252;28;20024;-49
2022/05/22 05:07:54;;;;;;;12.45;7.38;;;;;;;21.31;61.90;98458.81;5038304;28;20112;-49
2022/05/22 05:10:20;;;;;;;14.43;7.68;;;;;;;21.61;61.31;98459.69;5020404;28;20399;-48
2022/05/22 05:12:46;;;;;;;13.63;8.20;;;;;;;21.89;60.68;98455.47;5038201;28;20494;-49
2022/05/22 05:15:16;;;;;;;15.10;7.10;;;;;;;22.38;59.54;98462.56;5020423;28;20029;-49
2022/05/22 05:17:44;;;;;;;29.63;7.90;;;;;;;22.71;58.09;98465.41;5038112;28;20038;-49
2022/05/22 05:20:16;;;;;;;10.02;6.60;;;;;;;23.22;56.86;98470.16;5038171;28;20026;-49
2022/05/22 05:22:43;;;;;;;17.85;7.18;;;;;;;23.63;55.28;98469.56;5038176;28;20021;-50
2022/05/22 05:25:11;;;;;;;13.80;7.07;;;;;;;23.90;54.95;98471.59;5038003;28;20029;-49
2022/05/22 05:27:36;;;;;;;12.75;6.88;;;;;;;24.22;53.46;98474.53;5038153;28;20017;-49
2022/05/22 05:30:03;;;;;;;14.63;7.50;;;;;;;24.42;53.27;98473.38;5038024;28;20029;-49
2022/05/22 05:32:29;;;;;;;16.15;7.10;;;;;;;24.64;52.78;98475.41;5038030;28;20027;-47
2022/05/22 05:34:57;;;;;;;12.82;6.50;;;;;;;24.88;52.01;98467.94;5037968;28;20469;-48
2022/05/22 05:37:23;;;;;;;15.70;9.00;;;;;;;25.04;52.20;98467.63;5038253;28;20486;-48
2022/05/22 05:39:49;;;;;;;15.82;7.75;;;;;;;25.20;51.41;98466.19;5038189;28;20119;-48
2022/05/22 05:42:15;;;;;;;11.13;6.45;;;;;;;25.18;51.42;98456.84;5036667;28;20124;-48
2022/05/22 05:44:41;;;;;;;20.40;7.57;;;;;;;25.20;51.21;98462.72;5037983;28;20414;-48
2022/05/22 05:47:11;;;;;;;26.15;7.85;;;;;;;25.12;51.30;98459.63;5020060;28;20028;-47
2022/05/22 05:49:38;;;;;;;12.13;7.05;;;;;;;25.12;51.22;98456.16;5037855;28;20028;-48
2022/05/22 05:52:04;;;;;;;11.48;6.90;;;;;;;25.36;50.65;98452.47;5037850;28;20514;-48
2022/05/22 05:54:31;;;;;;;15.43;6.72;;;;;;;25.74;50.35;98463.66;5037703;28;20592;-48
2022/05/22 05:56:58;;;;;;;13.90;7.32;;;;;;;26.67;48.41;98460.22;5019995;28;20491;-48
2022/05/22 05:59:27;;;;;;;14.70;6.03;;;;;;;27.88;45.49;98463.38;5037751;28;20032;-48
2022/05/22 06:01:53;;;;;;;16.85;7.20;;;;;;;28.73;43.56;98456.44;5019935;28;20495;-48
2022/05/22 06:04:20;;;;;;;16.98;7.07;;;;;;;29.23;42.36;98455.66;5037745;28;20069;-48
2022/05/22 06:06:47;;;;;;;9.63;6.43;;;;;;;29.01;41.87;98448.63;5020153;28;20103;-48
2022/05/22 06:09:13;;;;;;;12.57;6.53;;;;;;;28.37;43.01;98446.88;5037729;28;20025;-48
2022/05/22 06:11:38;;;;;;;12.52;6.95;;;;;;;27.81;44.00;98446.84;5037631;28;20387;-48
2022/05/22 06:14:04;;;;;;;18.73;9.85;;;;;;;27.38;45.10;98451.16;5034502;28;20080;-48
2022/05/22 06:16:31;;;;;;;12.63;6.35;;;;;;;27.16;46.53;98462.06;5034582;28;20501;-48
2022/05/22 06:18:57;;;;;;;13.40;7.72;;;;;;;27.00;46.04;98459.81;5034195;28;20049;-50
2022/05/22 06:21:23;;;;;;;13.82;7.07;;;;;;;26.56;47.03;98460.78;5034480;28;20024;-49
2022/05/22 06:23:50;;;;;;;12.00;7.50;;;;;;;26.36;47.87;98456.75;5000640;28;20045;-49
2022/05/22 06:26:17;;;;;;;17.55;7.35;;;;;;;26.61;47.90;98463.38;5034373;28;20510;-50
2022/05/22 06:28:44;;;;;;;15.98;7.20;;;;;;;27.54;46.00;98464.19;5034338;28;20064;-49
2022/05/22 06:31:11;;;;;;;8.68;6.25;;;;;;;28.56;43.67;98468.91;5034278;28;20029;-49
2022/05/22 06:33:38;;;;;;;17.77;7.40;;;;;;;29.43;41.96;98460.28;5034257;28;20057;-49
2022/05/22 06:36:13;;;;;;;15.15;7.47;;;;;;;29.98;40.69;98455.69;5034183;28;20025;-49
2022/05/22 06:41:23;;;;;;;12.93;7.53;;;;;;;29.85;40.55;98449.41;5034448;28;19932;-48
2022/05/22 06:43:53;;;;;;;20.10;7.80;;;;;;;29.84;40.53;98455.97;5016308;28;20035;-48
2022/05/22 06:46:25;;;;;;;13.27;6.30;;;;;;;30.17;39.97;98443.53;5034045;28;20083;-48
2022/05/22 06:48:51;;;;;;;13.13;6.40;;;;;;;30.44;39.23;98445.59;5033999;28;20418;-48
2022/05/22 06:51:17;;;;;;;9.23;6.65;;;;;;;30.54;39.26;98443.56;5033958;28;20104;-48
2022/05/22 06:53:43;;;;;;;13.20;7.05;;;;;;;30.61;39.17;98438.38;5033817;28;20510;-48
2022/05/22 06:56:09;;;;;;;12.57;7.28;;;;;;;30.79;38.63;98438.94;5016051;28;20060;-48
2022/05/22 06:58:36;;;;;;;18.23;6.97;;;;;;;30.53;38.87;98442.78;5033827;28;20025;-48
2022/05/22 07:01:15;;;;;;;13.05;6.70;;;;;;;30.32;39.21;98444.81;5033723;28;20075;-48
2022/05/22 07:03:42;;;;;;;15.98;7.57;;;;;;;30.69;39.08;98450.22;5033856;28;20079;-48
2022/05/22 07:06:08;;;;;;;11.50;6.63;;;;;;;31.49;37.53;98437.91;5015762;28;20029;-48
2022/05/22 07:08:33;;;;;;;12.82;6.22;;;;;;;32.14;36.57;98440.44;5015877;28;20025;-49
2022/05/22 07:13:45;;;;;;;12.25;6.78;;;;;;;32.45;35.60;98439.59;5033508;28;20063;-49
2022/05/22 07:16:10;;;;;;;13.93;7.07;;;;;;;32.30;35.79;98440.41;5033738;28;20116;-50
2022/05/22 07:18:36;;;;;;;10.73;6.32;;;;;;;32.21;36.19;98437.88;5012151;28;20136;-50
2022/05/22 07:21:02;;;;;;;13.10;6.95;;;;;;;32.51;35.43;98438.19;5013564;28;20026;-50
2022/05/22 07:23:28;;;;;;;9.32;5.88;;;;;;;33.07;35.30;98426.25;5013301;28;20041;-49
2022/05/22 07:25:53;;;;;;;10.73;6.25;;;;;;;33.57;33.90;98421.06;5013281;28;20041;-49
2022/05/22 07:28:20;;;;;;;11.02;6.65;;;;;;;33.99;33.19;98418.34;5013481;28;20038;-50
2022/05/22 07:30:46;;;;;;;12.90;5.53;;;;;;;34.25;32.85;98414.13;5013367;28;20152;-50
2022/05/22 07:33:12;;;;;;;11.30;6.10;;;;;;;34.13;31.94;98412.34;5013299;28;20555;-50
2022/05/22 07:35:38;;;;;;;11.98;6.38;;;;;;;33.87;32.64;98415.81;5012053;28;20048;-48
2022/05/22 07:38:04;;;;;;;15.52;7.53;;;;;;;33.63;33.35;98417.72;5013576;28;20483;-49
2022/05/22 07:40:30;;;;;;;18.35;6.78;;;;;;;33.60;33.19;98415.66;5013240;28;20394;-49
2022/05/22 07:42:56;;;;;;;12.45;6.53;;;;;;;33.60;33.22;98415.66;5011922;28;20081;-49
2022/05/22 07:45:22;;;;;;;13.10;6.82;;;;;;;33.65;32.68;98417.34;5013177;28;20377;-49
2022/05/22 07:47:49;;;;;;;11.70;6.72;;;;;;;33.79;32.48;98405.94;5013116;28;20084;-49
2022/05/22 07:50:18;;;;;;;10.25;6.47;;;;;;;33.81;32.54;98398.19;5013018;28;20109;-49
2022/05/22 07:52:45;;;;;;;14.23;6.72;;;;;;;33.98;32.60;98386.81;5013257;28;20385;-49
2022/05/22 07:55:15;;;;;;;18.30;7.90;;;;;;;34.44;32.29;98386.00;5013116;28;20022;-48
2022/05/22 07:57:47;;;;;;;11.82;6.18;;;;;;;35.16;30.92;98384.28;5012968;28;20037;-49
2022/05/22 08:00:16;;;;;;;9.98;6.03;;;;;;;36.39;29.13;98387.00;5011626;28;20033;-50
2022/05/22 08:02:44;;;;;;;9.68;5.75;;;;;;;37.43;27.67;98379.31;5011720;28;20045;-51
2022/05/22 08:05:11;;;;;;;14.88;7.07;;;;;;;38.34;26.79;98380.97;5012773;28;20503;-50
2022/05/22 08:07:37;;;;;;;12.80;7.18;;;;;;;38.93;25.36;98372.97;5012841;28;20030;-51
2022/05/22 08:10:05;;;;;;;14.30;6.03;;;;;;;39.29;24.60;98375.56;5012709;28;20492;-49
2022/05/22 08:12:40;;;;;;;12.98;5.95;;;;;;;39.04;24.67;98372.16;5011320;28;20099;-50
2022/05/22 08:15:07;;;;;;;10.27;7.82;;;;;;;38.99;25.17;98373.34;5012606;28;20026;-49
2022/05/22 08:17:36;;;;;;;9.35;5.43;;;;;;;39.26;24.08;98372.81;5019898;28;20073;-49
2022/05/22 08:20:04;;;;;;;13.63;6.22;;;;;;;39.11;24.52;98364.66;5014457;28;20095;-49
2022/05/22 08:22:30;;;;;;;13.73;6.10;;;;;;;39.26;24.52;98364.59;5032281;28;20099;-49
2022/05/22 08:24:56;;;;;;;12.48;6.47;;;;;;;39.31;24.11;98364.94;5032061;28;20063;-49
2022/05/22 08:27:22;;;;;;;12.43;5.97;;;;;;;39.57;23.95;98356.59;5032134;28;20034;-50
2022/05/22 08:29:48;;;;;;;14.30;6.07;;;;;;;39.83;23.66;98360.72;5032188;28;20028;-50
2022/05/22 08:32:13;;;;;;;8.25;5.07;;;;;;;40.14;23.62;98365.16;5032071;28;20025;-49
2022/05/22 08:34:39;;;;;;;10.10;5.70;;;;;;;40.42;23.38;98355.09;5032014;28;20025;-49
2022/05/22 08:37:05;;;;;;;11.02;5.50;;;;;;;40.58;23.10;98348.25;5013479;28;20533;-49
2022/05/22 08:39:32;;;;;;;11.82;6.05;;;;;;;40.63;23.23;98345.84;5032015;28;20025;-49
2022/05/22 08:41:59;;;;;;;9.95;5.05;;;;;;;40.96;22.91;98345.47;5032156;28;20362;-49
2022/05/22 08:44:30;;;;;;;10.68;5.55;;;;;;;41.07;22.70;98346.06;5032005;28;20075;-48
2022/05/22 08:47:06;;;;;;;9.60;5.53;;;;;;;40.77;22.94;98339.41;5031949;28;20040;-51
2022/05/22 08:49:38;;;;;;;7.05;4.70;;;;;;;40.28;23.14;98344.22;5031983;28;20026;-49
2022/05/22 08:52:13;;;;;;;11.57;5.82;;;;;;;40.14;23.34;98337.66;5014138;28;20037;-49
2022/05/22 08:54:45;;;;;;;11.90;6.35;;;;;;;40.15;23.41;98349.47;5013969;28;20167;-48
2022/05/22 09:00:16;;;;;;;9.27;5.43;;;;;;;40.38;23.52;98334.31;5032054;28;20052;-48
2022/05/22 09:03:18;;;;;;;9.48;5.22;;;;;;;40.73;23.01;98328.41;5031784;28;20543;-49
2022/05/22 09:05:47;;;;;;;8.27;5.13;;;;;;;41.16;22.40;98329.84;5021611;28;20124;-50
2022/05/22 09:08:25;;;;;;;12.13;5.13;;;;;;;42.02;21.40;98327.78;5031798;28;20550;-49
2022/05/22 09:11:15;;;;;;;9.02;4.80;;;;;;;42.18;21.36;98321.53;5031906;28;20057;-49
2022/05/22 09:13:52;;;;;;;14.65;5.03;;;;;;;41.52;21.89;98310.81;5031581;28;20042;-49
2022/05/22 09:16:39;;;;;;;12.40;6.18;;;;;;;41.09;22.42;98305.13;5031691;28;20079;-49
2022/05/22 09:19:11;;;;;;;9.48;4.68;;;;;;;41.15;22.51;98299.94;5031643;28;20080;-49
2022/05/22 09:21:46;;;;;;;10.35;5.30;;;;;;;41.49;22.25;98302.59;5031661;28;20025;-50
2022/05/22 09:24:47;;;;;;;10.75;4.85;;;;;;;41.34;22.29;98299.31;5013787;28;20029;-49
2022/05/22 09:27:45;;;;;;;8.73;5.15;;;;;;;40.68;23.34;98295.06;4970582;28;20049;-49
2022/05/22 09:30:20;;;;;;;8.65;4.22;;;;;;;40.58;23.45;98296.75;4967998;28;20047;-50
2022/05/22 09:33:08;;;;;;;10.82;5.05;;;;;;;40.96;22.96;98285.66;4970672;28;20031;-50
2022/05/22 09:36:03;;;;;;;8.75;4.75;;;;;;;41.55;22.11;98280.88;4970512;28;20640;-50
2022/05/22 09:39:01;;;;;;;9.05;4.80;;;;;;;41.82;22.13;98278.84;4970625;28;20171;-49
2022/05/22 09:41:56;;;;;;;9.57;5.18;;;;;;;40.75;22.90;98272.19;4970507;28;20110;-49
2022/05/22 09:44:25;;;;;;;13.23;5.15;;;;;;;40.47;23.09;98272.13;4970479;28;20097;-50
2022/05/22 09:47:09;;;;;;;16.77;4.80;;;;;;;40.93;22.97;98270.78;4970671;28;20131;-49
2022/05/22 09:50:16;;;;;;;14.77;5.13;;;;;;;41.60;22.33;98261.16;4974042;28;20451;-49
2022/05/22 09:52:57;;;;;;;8.82;4.63;;;;;;;42.24;21.55;98254.47;4974102;28;20070;-49
2022/05/22 09:55:42;;;;;;;12.70;5.20;;;;;;;42.65;21.27;98255.22;4974059;28;20544;-49
2022/05/22 09:58:28;;;;;;;11.23;4.28;;;;;;;43.34;20.36;98260.00;4973980;28;20038;-50
2022/05/22 10:01:04;;;;;;;15.45;4.68;;;;;;;43.84;20.15;98254.00;4973920;28;20588;-48
2022/05/22 10:03:52;;;;;;;13.27;4.13;;;;;;;44.36;19.54;98251.44;5001323;28;20041;-51
2022/05/22 10:06:42;;;;;;;11.35;4.53;;;;;;;44.26;18.90;98247.75;5016943;28;20398;-49
2022/05/22 10:09:35;;;;;;;13.00;4.50;;;;;;;43.65;19.48;98244.59;5034785;28;20025;-49
2022/05/22 10:12:19;;;;;;;11.57;4.53;;;;;;;43.11;20.46;98247.13;5034652;28;20116;-51
2022/05/22 10:15:09;;;;;;;9.80;4.45;;;;;;;42.49;20.99;98256.72;5016785;28;20503;-49
2022/05/22 10:17:54;;;;;;;9.55;4.18;;;;;;;42.85;20.88;98246.91;5016603;28;20543;-49
2022/05/22 10:20:26;;;;;;;11.43;3.97;;;;;;;43.61;19.54;98245.91;5016789;28;20029;-50
2022/05/22 10:23:26;;;;;;;7.65;3.90;;;;;;;44.14;19.30;98249.25;5034696;28;20053;-49
2022/05/22 10:26:16;;;;;;;10.13;3.90;;;;;;;44.76;18.83;98248.28;5018278;28;20565;-49
2022/05/22 10:28:54;;;;;;;9.90;3.83;;;;;;;45.49;17.83;98236.50;5034440;28;20080;-50
2022/05/22 10:31:49;;;;;;;14.32;4.40;;;;;;;45.96;17.55;98227.34;5034387;28;20104;-49
2022/05/22 10:34:45;;;;;;;10.23;4.10;;;;;;;45.99;17.49;98223.66;5034267;28;20029;-49
2022/05/22 10:37:45;;;;;;;10.27;4.20;;;;;;;46.41;17.09;98209.44;5034240;28;20029;-50
2022/05/22 10:40:18;;;;;;;8.57;3.58;;;;;;;46.27;17.07;98198.91;5034099;28;20033;-51
2022/05/22 10:42:50;;;;;;;10.45;4.40;;;;;;;45.66;17.37;98196.31;5016347;28;20026;-49
2022/05/22 10:45:21;;;;;;;9.17;3.93;;;;;;;45.10;18.04;98196.97;5034158;28;20043;-50
2022/05/22 10:47:49;;;;;;;9.98;4.47;;;;;;;44.66;18.11;98190.03;5034044;28;20033;-48
2022/05/22 10:50:27;;;;;;;12.93;3.97;;;;;;;44.10;18.70;98190.50;5016171;28;20029;-49
2022/05/22 10:52:54;;;;;;;10.98;4.45;;;;;;;43.70;19.02;98182.50;5016463;28;20025;-49
2022/05/22 10:55:43;;;;;;;11.30;5.20;;;;;;;43.30;19.70;98168.91;5033833;28;20036;-50
2022/05/22 10:58:34;;;;;;;15.25;4.55;;;;;;;43.33;19.66;98175.56;5033652;28;20080;-49
2022/05/22 11:01:05;;;;;;;8.13;3.88;;;;;;;43.26;19.50;98168.22;5033707;28;20083;-50
2022/05/22 11:03:34;;;;;;;12.85;4.53;;;;;;;43.13;19.67;98167.38;5033747;28;20108;-48
2022/05/22 11:06:14;;;;;;;11.10;3.92;;;;;;;42.85;20.32;98161.31;5033557;28;20399;-50
2022/05/22 11:08:46;;;;;;;11.02;4.13;;;;;;;43.08;19.76;98152.88;5033597;28;20033;-48
2022/05/22 11:11:14;;;;;;;10.27;4.13;;;;;;;43.16;19.96;98156.22;5033634;28;20025;-50
2022/05/22 11:13:40;;;;;;;7.63;4.20;;;;;;;42.98;20.11;98151.16;5015695;28;20052;-46
2022/05/22 11:16:19;;;;;;;5.90;4.15;;;;;;;43.19;19.56;98144.31;5033765;28;20410;-47
2022/05/22 11:18:46;;;;;;;11.55;4.82;;;;;;;43.86;19.15;98135.44;5032967;28;20069;-49
2022/05/22 11:21:25;;;;;;;9.30;3.65;;;;;;;43.83;18.92;98136.34;5033326;28;20044;-49
2022/05/22 11:24:26;;;;;;;10.95;4.40;;;;;;;43.73;18.95;98129.13;5033370;28;20036;-48
2022/05/22 11:27:19;;;;;;;11.27;3.67;;;;;;;43.70;18.78;98134.75;5015517;28;20410;-49
2022/05/22 11:30:09;;;;;;;7.82;3.58;;;;;;;43.36;19.06;98131.28;5033264;28;20041;-48
2022/05/22 11:32:40;;;;;;;9.20;3.92;;;;;;;43.63;18.97;98117.13;5015442;28;20502;-49
2022/05/22 11:35:31;;;;;;;10.52;3.95;;;;;;;43.56;19.35;98116.53;5033022;28;20075;-49
2022/05/22 11:38:23;;;;;;;9.52;3.53;;;;;;;43.25;19.48;98101.16;5033069;28;20037;-51
2022/05/22 11:41:04;;;;;;;14.93;3.45;;;;;;;42.80;19.90;98101.09;5032965;28;20082;-50
2022/05/22 11:43:38;;;;;;;21.48;4.68;;;;;;;42.20;20.44;98099.31;5033023;28;20041;-49
2022/05/22 11:46:19;;;;;;;8.77;4.43;;;;;;;41.29;21.37;98098.72;5032796;28;20029;-50
2022/05/22 11:49:12;;;;;;;9.73;3.90;;;;;;;40.66;22.13;98080.88;5032887;28;20037;-49
2022/05/22 11:55:29;;;;;;;11.82;3.80;;;;;;;40.81;22.03;98075.16;4995539;28;20534;-50
2022/05/22 11:58:16;;;;;;;11.85;4.13;;;;;;;40.91;21.91;98077.75;5032755;28;20029;-51
2022/05/22 12:00:56;;;;;;;10.18;4.47;;;;;;;40.73;22.33;98075.25;5032638;28;20040;-50
2022/05/22 12:04:21;;;;;;;10.73;3.65;;;;;;;40.88;22.67;98069.53;5032637;28;20025;-50